sensor_id;sensor_type;location;lat;lon;timestamp;pressure;altitude;pressure_sealevel;temperature
40047;BMP280;31510;48.122;11.576;2022-09-03T00:01:26;95409.34;;;15.36
40047;BMP280;31510;48.122;11.576;2022-09-03T00:04:06;95411.00;;;15.28
40047;BMP280;31510;48.122;11.576;2022-09-03T00:06:37;95415.91;;;15.29
40047;BMP280;31510;48.122;11.576;2022-09-03T00:09:11;95405.63;;;15.28
40047;BMP280;31510;48.122;11.576;2022-09-03T00:11:47;95403.88;;;15.25
40047;BMP280;31510;48.122;11.576;2022-09-03T00:14:20;95410.44;;;15.24
40047;BMP280;31510;48.122;11.576;2022-09-03T00:16:48;95409.72;;;15.23
40047;BMP280;31510;48.122;11.576;2022-09-03T00:19:21;95416.84;;;15.26
40047;BMP280;31510;48.122;11.576;2022-09-03T00:21:54;95413.13;;;15.24
40047;BMP280;31510;48.122;11.576;2022-09-03T00:24:22;95407.25;;;15.20
40047;BMP280;31510;48.122;11.576;2022-09-03T00:26:52;95406.25;;;15.18
40047;BMP280;31510;48.122;11.576;2022-09-03T00:30:03;95407.09;;;15.09
40047;BMP280;31510;48.122;11.576;2022-09-03T00:35:21;95409.78;;;15.09
40047;BMP280;31510;48.122;11.576;2022-09-03T00:37:50;95405.63;;;15.08
40047;BMP280;31510;48.122;11.576;2022-09-03T00:43:22;95392.09;;;14.97
40047;BMP280;31510;48.122;11.576;2022-09-03T00:49:24;95401.09;;;14.94
40047;BMP280;31510;48.122;11.576;2022-09-03T00:57:49;95412.56;;;14.95
40047;BMP280;31510;48.122;11.576;2022-09-03T01:00:21;95415.00;;;14.93
40047;BMP280;31510;48.122;11.576;2022-09-03T01:03:07;95420.09;;;14.91
40047;BMP280;31510;48.122;11.576;2022-09-03T01:09:16;95410.25;;;14.82
40047;BMP280;31510;48.122;11.576;2022-09-03T01:11:30;95412.88;;;14.77
40047;BMP280;31510;48.122;11.576;2022-09-03T01:17:18;95405.09;;;14.59
40047;BMP280;31510;48.122;11.576;2022-09-03T01:22:43;95414.81;;;14.57
40047;BMP280;31510;48.122;11.576;2022-09-03T01:37:19;95416.19;;;14.33
40047;BMP280;31510;48.122;11.576;2022-09-03T01:42:53;95408.81;;;14.28
40047;BMP280;31510;48.122;11.576;2022-09-03T01:48:32;95404.84;;;14.23
40047;BMP280;31510;48.122;11.576;2022-09-03T01:54:02;95399.81;;;14.31
40047;BMP280;31510;48.122;11.576;2022-09-03T01:57:14;95391.25;;;14.27
40047;BMP280;31510;48.122;11.576;2022-09-03T02:02:23;95390.97;;;14.25
40047;BMP280;31510;48.122;11.576;2022-09-03T02:07:25;95388.84;;;14.29
40047;BMP280;31510;48.122;11.576;2022-09-03T02:12:17;95380.78;;;14.29
40047;BMP280;31510;48.122;11.576;2022-09-03T02:14:44;95379.88;;;14.32
40047;BMP280;31510;48.122;11.576;2022-09-03T02:17:10;95375.75;;;14.36
40047;BMP280;31510;48.122;11.576;2022-09-03T02:19:36;95379.00;;;14.40
40047;BMP280;31510;48.122;11.576;2022-09-03T02:22:03;95384.44;;;14.45
40047;BMP280;31510;48.122;11.576;2022-09-03T02:24:28;95390.25;;;14.44
40047;BMP280;31510;48.122;11.576;2022-09-03T02:26:55;95384.91;;;14.44
40047;BMP280;31510;48.122;11.576;2022-09-03T02:29:21;95395.63;;;14.44
40047;BMP280;31510;48.122;11.576;2022-09-03T02:31:46;95389.72;;;14.40
40047;BMP280;31510;48.122;11.576;2022-09-03T02:34:12;95401.38;;;14.37
40047;BMP280;31510;48.122;11.576;2022-09-03T02:36:40;95388.16;;;14.34
40047;BMP280;31510;48.122;11.576;2022-09-03T02:39:06;95398.38;;;14.30
40047;BMP280;31510;48.122;11.576;2022-09-03T02:41:32;95397.06;;;14.25
40047;BMP280;31510;48.122;11.576;2022-09-03T02:44:07;95407.34;;;14.27
40047;BMP280;31510;48.122;11.576;2022-09-03T02:46:39;95398.31;;;14.24
40047;BMP280;31510;48.122;11.576;2022-09-03T02:49:05;95396.47;;;14.16
40047;BMP280;31510;48.122;11.576;2022-09-03T02:51:32;95392.88;;;14.04
40047;BMP280;31510;48.122;11.576;2022-09-03T02:53:59;95389.47;;;14.04
40047;BMP280;31510;48.122;11.576;2022-09-03T02:56:24;95396.06;;;14.03
40047;BMP280;31510;48.122;11.576;2022-09-03T02:58:52;95400.00;;;14.07
40047;BMP280;31510;48.122;11.576;2022-09-03T03:01:18;95392.50;;;14.11
40047;BMP280;31510;48.122;11.576;2022-09-03T03:03:43;95393.53;;;14.14
40047;BMP280;31510;48.122;11.576;2022-09-03T03:06:08;95393.25;;;14.12
40047;BMP280;31510;48.122;11.576;2022-09-03T03:08:34;95388.81;;;14.09
40047;BMP280;31510;48.122;11.576;2022-09-03T03:11:00;95394.44;;;14.11
40047;BMP280;31510;48.122;11.576;2022-09-03T03:13:27;95391.03;;;14.10
40047;BMP280;31510;48.122;11.576;2022-09-03T03:15:57;95385.34;;;14.03
40047;BMP280;31510;48.122;11.576;2022-09-03T03:18:22;95390.75;;;13.94
40047;BMP280;31510;48.122;11.576;2022-09-03T03:20:48;95399.00;;;13.91
40047;BMP280;31510;48.122;11.576;2022-09-03T03:23:13;95411.47;;;13.94
40047;BMP280;31510;48.122;11.576;2022-09-03T03:25:39;95397.78;;;13.92
40047;BMP280;31510;48.122;11.576;2022-09-03T03:28:05;95390.13;;;13.85
40047;BMP280;31510;48.122;11.576;2022-09-03T03:30:31;95400.59;;;13.83
40047;BMP280;31510;48.122;11.576;2022-09-03T03:32:57;95399.09;;;13.82
40047;BMP280;31510;48.122;11.576;2022-09-03T03:35:22;95401.78;;;13.82
40047;BMP280;31510;48.122;11.576;2022-09-03T03:37:48;95399.41;;;13.84
40047;BMP280;31510;48.122;11.576;2022-09-03T03:40:14;95404.94;;;13.80
40047;BMP280;31510;48.122;11.576;2022-09-03T03:42:40;95407.25;;;13.73
40047;BMP280;31510;48.122;11.576;2022-09-03T03:45:06;95411.06;;;13.66
40047;BMP280;31510;48.122;11.576;2022-09-03T03:47:32;95410.50;;;13.62
40047;BMP280;31510;48.122;11.576;2022-09-03T03:49:58;95421.97;;;13.63
40047;BMP280;31510;48.122;11.576;2022-09-03T03:52:24;95417.25;;;13.58
40047;BMP280;31510;48.122;11.576;2022-09-03T03:54:50;95417.63;;;13.51
40047;BMP280;31510;48.122;11.576;2022-09-03T03:57:16;95406.72;;;13.40
40047;BMP280;31510;48.122;11.576;2022-09-03T03:59:43;95407.38;;;13.35
40047;BMP280;31510;48.122;11.576;2022-09-03T04:02:09;95410.97;;;13.32
40047;BMP280;31510;48.122;11.576;2022-09-03T04:04:34;95404.59;;;13.30
40047;BMP280;31510;48.122;11.576;2022-09-03T04:06:59;95396.31;;;13.28
40047;BMP280;31510;48.122;11.576;2022-09-03T04:09:24;95389.44;;;13.27
40047;BMP280;31510;48.122;11.576;2022-09-03T04:11:50;95396.13;;;13.31
40047;BMP280;31510;48.122;11.576;2022-09-03T04:14:16;95401.28;;;13.35
40047;BMP280;31510;48.122;11.576;2022-09-03T04:16:42;95395.94;;;13.35
40047;BMP280;31510;48.122;11.576;2022-09-03T04:19:11;95397.13;;;13.34
40047;BMP280;31510;48.122;11.576;2022-09-03T04:21:36;95396.19;;;13.37
40047;BMP280;31510;48.122;11.576;2022-09-03T04:24:03;95406.53;;;13.44
40047;BMP280;31510;48.122;11.576;2022-09-03T04:26:30;95407.38;;;13.50
40047;BMP280;31510;48.122;11.576;2022-09-03T04:28:57;95405.72;;;13.52
40047;BMP280;31510;48.122;11.576;2022-09-03T04:31:22;95406.00;;;13.54
40047;BMP280;31510;48.122;11.576;2022-09-03T04:33:48;95401.63;;;13.56
40047;BMP280;31510;48.122;11.576;2022-09-03T04:36:18;95405.53;;;13.56
40047;BMP280;31510;48.122;11.576;2022-09-03T04:38:49;95415.94;;;13.54
40047;BMP280;31510;48.122;11.576;2022-09-03T04:41:16;95409.31;;;13.49
40047;BMP280;31510;48.122;11.576;2022-09-03T04:43:43;95412.19;;;13.46
40047;BMP280;31510;48.122;11.576;2022-09-03T04:46:10;95412.91;;;13.46
40047;BMP280;31510;48.122;11.576;2022-09-03T04:48:36;95412.91;;;13.46
40047;BMP280;31510;48.122;11.576;2022-09-03T04:53:31;95414.03;;;13.54
40047;BMP280;31510;48.122;11.576;2022-09-03T04:55:56;95408.03;;;13.59
40047;BMP280;31510;48.122;11.576;2022-09-03T04:58:21;95421.41;;;13.59
40047;BMP280;31510;48.122;11.576;2022-09-03T05:00:47;95427.78;;;13.61
40047;BMP280;31510;48.122;11.576;2022-09-03T05:03:12;95435.63;;;13.65
40047;BMP280;31510;48.122;11.576;2022-09-03T05:05:37;95428.31;;;13.65
40047;BMP280;31510;48.122;11.576;2022-09-03T05:08:03;95434.22;;;13.69
40047;BMP280;31510;48.122;11.576;2022-09-03T05:10:29;95437.75;;;13.75
40047;BMP280;31510;48.122;11.576;2022-09-03T05:13:03;95436.16;;;13.83
40047;BMP280;31510;48.122;11.576;2022-09-03T05:15:30;95430.41;;;13.90
40047;BMP280;31510;48.122;11.576;2022-09-03T05:17:58;95427.28;;;13.92
40047;BMP280;31510;48.122;11.576;2022-09-03T05:20:24;95436.81;;;13.93
40047;BMP280;31510;48.122;11.576;2022-09-03T05:22:50;95439.22;;;13.91
40047;BMP280;31510;48.122;11.576;2022-09-03T05:25:16;95456.56;;;13.95
40047;BMP280;31510;48.122;11.576;2022-09-03T05:27:41;95453.53;;;14.02
40047;BMP280;31510;48.122;11.576;2022-09-03T05:30:07;95450.75;;;14.11
40047;BMP280;31510;48.122;11.576;2022-09-03T05:32:33;95467.44;;;14.20
40047;BMP280;31510;48.122;11.576;2022-09-03T05:34:58;95470.00;;;14.29
40047;BMP280;31510;48.122;11.576;2022-09-03T05:37:24;95488.97;;;14.40
40047;BMP280;31510;48.122;11.576;2022-09-03T05:39:49;95488.38;;;14.50
40047;BMP280;31510;48.122;11.576;2022-09-03T05:42:15;95478.25;;;14.60
40047;BMP280;31510;48.122;11.576;2022-09-03T05:44:40;95473.44;;;14.64
40047;BMP280;31510;48.122;11.576;2022-09-03T05:47:06;95468.53;;;14.62
40047;BMP280;31510;48.122;11.576;2022-09-03T05:49:31;95473.81;;;14.57
40047;BMP280;31510;48.122;11.576;2022-09-03T05:51:56;95468.00;;;14.58
40047;BMP280;31510;48.122;11.576;2022-09-03T05:54:22;95469.00;;;14.61
40047;BMP280;31510;48.122;11.576;2022-09-03T05:56:47;95460.28;;;14.66
40047;BMP280;31510;48.122;11.576;2022-09-03T05:59:13;95464.97;;;14.71
40047;BMP280;31510;48.122;11.576;2022-09-03T06:01:41;95475.59;;;14.79
40047;BMP280;31510;48.122;11.576;2022-09-03T06:04:11;95484.72;;;14.87
40047;BMP280;31510;48.122;11.576;2022-09-03T06:06:40;95487.69;;;14.89
40047;BMP280;31510;48.122;11.576;2022-09-03T06:09:08;95472.03;;;14.88
40047;BMP280;31510;48.122;11.576;2022-09-03T06:11:37;95481.28;;;14.87
40047;BMP280;31510;48.122;11.576;2022-09-03T06:14:05;95479.63;;;14.89
40047;BMP280;31510;48.122;11.576;2022-09-03T06:16:33;95469.88;;;14.92
40047;BMP280;31510;48.122;11.576;2022-09-03T06:18:59;95467.00;;;14.95
40047;BMP280;31510;48.122;11.576;2022-09-03T06:21:24;95470.22;;;14.99
40047;BMP280;31510;48.122;11.576;2022-09-03T06:23:51;95490.56;;;15.06
40047;BMP280;31510;48.122;11.576;2022-09-03T06:26:18;95485.72;;;15.10
40047;BMP280;31510;48.122;11.576;2022-09-03T06:28:44;95489.97;;;15.16
40047;BMP280;31510;48.122;11.576;2022-09-03T06:31:14;95480.97;;;15.19
40047;BMP280;31510;48.122;11.576;2022-09-03T06:33:40;95479.50;;;15.18
40047;BMP280;31510;48.122;11.576;2022-09-03T06:36:08;95485.13;;;15.20
40047;BMP280;31510;48.122;11.576;2022-09-03T06:38:35;95481.03;;;15.24
40047;BMP280;31510;48.122;11.576;2022-09-03T06:41:13;95278.63;;;15.27
40047;BMP280;31510;48.122;11.576;2022-09-03T06:43:40;95494.53;;;15.30
40047;BMP280;31510;48.122;11.576;2022-09-03T06:46:14;95496.53;;;15.35
40047;BMP280;31510;48.122;11.576;2022-09-03T06:48:40;95507.34;;;15.40
40047;BMP280;31510;48.122;11.576;2022-09-03T06:51:13;95502.50;;;15.44
40047;BMP280;31510;48.122;11.576;2022-09-03T06:53:41;95504.03;;;15.51
40047;BMP280;31510;48.122;11.576;2022-09-03T06:56:12;95509.00;;;15.57
40047;BMP280;31510;48.122;11.576;2022-09-03T06:58:38;95514.63;;;15.59
40047;BMP280;31510;48.122;11.576;2022-09-03T07:01:09;95517.31;;;15.59
40047;BMP280;31510;48.122;11.576;2022-09-03T07:03:35;95513.88;;;15.59
40047;BMP280;31510;48.122;11.576;2022-09-03T07:08:36;95509.72;;;15.58
40047;BMP280;31510;48.122;11.576;2022-09-03T07:11:04;95513.88;;;15.59
40047;BMP280;31510;48.122;11.576;2022-09-03T07:13:33;95508.22;;;15.57
40047;BMP280;31510;48.122;11.576;2022-09-03T07:16:05;95512.63;;;15.55
40047;BMP280;31510;48.122;11.576;2022-09-03T07:18:31;95523.63;;;15.57
40047;BMP280;31510;48.122;11.576;2022-09-03T07:21:01;95532.22;;;15.60
40047;BMP280;31510;48.122;11.576;2022-09-03T07:23:28;95528.31;;;15.61
40047;BMP280;31510;48.122;11.576;2022-09-03T07:25:59;95528.59;;;15.63
40047;BMP280;31510;48.122;11.576;2022-09-03T07:28:25;95520.00;;;15.59
40047;BMP280;31510;48.122;11.576;2022-09-03T07:30:52;95528.00;;;15.54
40047;BMP280;31510;48.122;11.576;2022-09-03T07:33:18;95526.25;;;15.51
40047;BMP280;31510;48.122;11.576;2022-09-03T07:35:44;95526.72;;;15.50
40047;BMP280;31510;48.122;11.576;2022-09-03T07:38:09;95525.53;;;15.51
40047;BMP280;31510;48.122;11.576;2022-09-03T07:40:35;95531.38;;;15.49
40047;BMP280;31510;48.122;11.576;2022-09-03T07:43:00;95526.94;;;15.46
40047;BMP280;31510;48.122;11.576;2022-09-03T07:45:29;95519.59;;;15.47
40047;BMP280;31510;48.122;11.576;2022-09-03T07:47:55;95525.28;;;15.49
40047;BMP280;31510;48.122;11.576;2022-09-03T07:50:20;95527.41;;;15.45
40047;BMP280;31510;48.122;11.576;2022-09-03T07:52:46;95527.88;;;15.43
40047;BMP280;31510;48.122;11.576;2022-09-03T07:55:13;95517.13;;;15.43
40047;BMP280;31510;48.122;11.576;2022-09-03T07:57:38;95528.16;;;15.45
40047;BMP280;31510;48.122;11.576;2022-09-03T08:00:05;95531.38;;;15.49
40047;BMP280;31510;48.122;11.576;2022-09-03T08:02:34;95530.91;;;15.51
40047;BMP280;31510;48.122;11.576;2022-09-03T08:04:59;95537.75;;;15.52
40047;BMP280;31510;48.122;11.576;2022-09-03T08:07:25;95543.38;;;15.54
40047;BMP280;31510;48.122;11.576;2022-09-03T08:09:50;95550.75;;;15.58
40047;BMP280;31510;48.122;11.576;2022-09-03T08:12:15;95540.53;;;15.62
40047;BMP280;31510;48.122;11.576;2022-09-03T08:14:41;95536.38;;;15.61
40047;BMP280;31510;48.122;11.576;2022-09-03T08:17:06;95545.19;;;15.62
40047;BMP280;31510;48.122;11.576;2022-09-03T08:19:32;95539.84;;;15.67
40047;BMP280;31510;48.122;11.576;2022-09-03T08:21:59;95539.19;;;15.72
40047;BMP280;31510;48.122;11.576;2022-09-03T08:24:24;95541.66;;;15.76
40047;BMP280;31510;48.122;11.576;2022-09-03T08:26:50;95531.44;;;15.80
40047;BMP280;31510;48.122;11.576;2022-09-03T08:29:16;95538.34;;;15.86
40047;BMP280;31510;48.122;11.576;2022-09-03T08:31:41;95537.19;;;15.93
40047;BMP280;31510;48.122;11.576;2022-09-03T08:34:07;95533.31;;;15.99
40047;BMP280;31510;48.122;11.576;2022-09-03T08:36:37;95539.75;;;16.07
40047;BMP280;31510;48.122;11.576;2022-09-03T08:39:07;95544.97;;;16.16
40047;BMP280;31510;48.122;11.576;2022-09-03T08:44:23;95536.09;;;16.35
40047;BMP280;31510;48.122;11.576;2022-09-03T08:49:42;95535.25;;;16.54
40047;BMP280;31510;48.122;11.576;2022-09-03T08:52:41;95535.59;;;16.67
40047;BMP280;31510;48.122;11.576;2022-09-03T08:55:26;95531.00;;;16.78
40047;BMP280;31510;48.122;11.576;2022-09-03T08:58:08;95521.03;;;16.90
40047;BMP280;31510;48.122;11.576;2022-09-03T09:00:57;95535.56;;;17.03
40047;BMP280;31510;48.122;11.576;2022-09-03T09:06:28;95521.19;;;17.17
40047;BMP280;31510;48.122;11.576;2022-09-03T09:17:36;95519.66;;;17.68
40047;BMP280;31510;48.122;11.576;2022-09-03T09:20:47;95512.78;;;17.78
40047;BMP280;31510;48.122;11.576;2022-09-03T09:23:09;95507.41;;;17.89
40047;BMP280;31510;48.122;11.576;2022-09-03T09:25:46;95502.03;;;17.95
40047;BMP280;31510;48.122;11.576;2022-09-03T09:28:21;95504.25;;;18.01
40047;BMP280;31510;48.122;11.576;2022-09-03T09:30:48;95498.63;;;18.10
40047;BMP280;31510;48.122;11.576;2022-09-03T09:33:15;95501.81;;;18.20
40047;BMP280;31510;48.122;11.576;2022-09-03T09:35:41;95503.03;;;18.30
40047;BMP280;31510;48.122;11.576;2022-09-03T09:38:08;95499.34;;;18.38
40047;BMP280;31510;48.122;11.576;2022-09-03T09:40:36;95497.38;;;18.44
40047;BMP280;31510;48.122;11.576;2022-09-03T09:43:20;95502.53;;;18.53
40047;BMP280;31510;48.122;11.576;2022-09-03T09:45:50;95494.91;;;18.57
40047;BMP280;31510;48.122;11.576;2022-09-03T09:48:21;95490.97;;;18.63
40047;BMP280;31510;48.122;11.576;2022-09-03T09:50:46;95489.47;;;18.73
40047;BMP280;31510;48.122;11.576;2022-09-03T09:53:12;95368.59;;;18.01
40047;BMP280;31510;48.122;11.576;2022-09-03T09:55:53;95496.06;;;18.99
40047;BMP280;31510;48.122;11.576;2022-09-03T09:58:21;95498.25;;;19.06
40047;BMP280;31510;48.122;11.576;2022-09-03T10:00:57;95490.09;;;19.12
40047;BMP280;31510;48.122;11.576;2022-09-03T10:03:23;95489.63;;;19.13
40047;BMP280;31510;48.122;11.576;2022-09-03T10:06:06;95484.19;;;19.19
40047;BMP280;31510;48.122;11.576;2022-09-03T10:09:03;95494.75;;;19.22
40047;BMP280;31510;48.122;11.576;2022-09-03T10:11:30;95478.03;;;19.23
40047;BMP280;31510;48.122;11.576;2022-09-03T10:13:56;95487.84;;;19.26
40047;BMP280;31510;48.122;11.576;2022-09-03T10:16:25;95490.06;;;19.28
40047;BMP280;31510;48.122;11.576;2022-09-03T10:18:59;95487.31;;;19.33
40047;BMP280;31510;48.122;11.576;2022-09-03T10:21:50;95495.66;;;19.41
40047;BMP280;31510;48.122;11.576;2022-09-03T10:24:27;95495.63;;;19.46
40047;BMP280;31510;48.122;11.576;2022-09-03T10:26:56;95490.66;;;19.50
40047;BMP280;31510;48.122;11.576;2022-09-03T10:29:24;95489.19;;;19.55
40047;BMP280;31510;48.122;11.576;2022-09-03T10:34:42;95492.31;;;19.64
40047;BMP280;31510;48.122;11.576;2022-09-03T10:45:37;95479.34;;;19.97
40047;BMP280;31510;48.122;11.576;2022-09-03T10:50:35;95458.84;;;20.07
40047;BMP280;31510;48.122;11.576;2022-09-03T10:56:07;95462.13;;;20.24
40047;BMP280;31510;48.122;11.576;2022-09-03T11:06:56;95450.25;;;20.56
40047;BMP280;31510;48.122;11.576;2022-09-03T11:11:57;95456.19;;;20.54
40047;BMP280;31510;48.122;11.576;2022-09-03T11:14:37;95459.13;;;20.56
40047;BMP280;31510;48.122;11.576;2022-09-03T11:17:21;95453.19;;;20.58
40047;BMP280;31510;48.122;11.576;2022-09-03T11:19:51;95453.94;;;20.58
40047;BMP280;31510;48.122;11.576;2022-09-03T11:22:19;95452.19;;;20.61
40047;BMP280;31510;48.122;11.576;2022-09-03T11:24:53;95439.88;;;20.65
40047;BMP280;31510;48.122;11.576;2022-09-03T11:30:08;95438.47;;;20.77
40047;BMP280;31510;48.122;11.576;2022-09-03T11:32:49;95427.88;;;20.79
40047;BMP280;31510;48.122;11.576;2022-09-03T11:35:27;95430.59;;;20.79
40047;BMP280;31510;48.122;11.576;2022-09-03T11:40:19;95436.97;;;20.82
40047;BMP280;31510;48.122;11.576;2022-09-03T11:42:46;95428.13;;;20.81
40047;BMP280;31510;48.122;11.576;2022-09-03T11:47:52;95436.91;;;20.87
40047;BMP280;31510;48.122;11.576;2022-09-03T11:52:48;95424.47;;;20.97
40047;BMP280;31510;48.122;11.576;2022-09-03T11:55:29;95429.59;;;21.00
40047;BMP280;31510;48.122;11.576;2022-09-03T11:57:55;95423.69;;;21.02
40047;BMP280;31510;48.122;11.576;2022-09-03T12:00:21;95420.22;;;21.01
40047;BMP280;31510;48.122;11.576;2022-09-03T12:02:56;95425.56;;;21.07
40047;BMP280;31510;48.122;11.576;2022-09-03T12:11:09;95398.34;;;21.18
40047;BMP280;31510;48.122;11.576;2022-09-03T12:14:00;95395.56;;;21.23
40047;BMP280;31510;48.122;11.576;2022-09-03T12:19:25;95400.94;;;21.60
40047;BMP280;31510;48.122;11.576;2022-09-03T12:21:52;95402.47;;;21.73
40047;BMP280;31510;48.122;11.576;2022-09-03T12:24:19;95405.34;;;21.81
40047;BMP280;31510;48.122;11.576;2022-09-03T12:26:44;95390.09;;;21.91
40047;BMP280;31510;48.122;11.576;2022-09-03T12:29:24;95392.44;;;22.00
40047;BMP280;31510;48.122;11.576;2022-09-03T12:31:50;95387.66;;;22.05
40047;BMP280;31510;48.122;11.576;2022-09-03T12:34:18;95391.22;;;22.13
40047;BMP280;31510;48.122;11.576;2022-09-03T12:36:47;95382.69;;;22.22
40047;BMP280;31510;48.122;11.576;2022-09-03T12:39:15;95383.75;;;22.32
40047;BMP280;31510;48.122;11.576;2022-09-03T12:42:04;94616.44;;;17.32
40047;BMP280;31510;48.122;11.576;2022-09-03T12:47:10;95380.19;;;22.63
40047;BMP280;31510;48.122;11.576;2022-09-03T12:49:40;95381.56;;;22.69
40047;BMP280;31510;48.122;11.576;2022-09-03T12:55:00;95372.28;;;22.90
40047;BMP280;31510;48.122;11.576;2022-09-03T12:57:31;95366.19;;;22.97
40047;BMP280;31510;48.122;11.576;2022-09-03T13:00:01;95368.06;;;23.02
40047;BMP280;31510;48.122;11.576;2022-09-03T13:05:20;95345.88;;;23.11
40047;BMP280;31510;48.122;11.576;2022-09-03T13:07:51;95347.19;;;23.18
40047;BMP280;31510;48.122;11.576;2022-09-03T13:10:29;95373.59;;;23.43
40047;BMP280;31510;48.122;11.576;2022-09-03T13:13:20;95343.63;;;23.23
40047;BMP280;31510;48.122;11.576;2022-09-03T13:15:56;95346.59;;;23.12
40047;BMP280;31510;48.122;11.576;2022-09-03T13:21:17;95365.69;;;22.99
40047;BMP280;31510;48.122;11.576;2022-09-03T13:23:54;95367.56;;;22.91
40047;BMP280;31510;48.122;11.576;2022-09-03T13:31:52;95376.31;;;22.84
40047;BMP280;31510;48.122;11.576;2022-09-03T13:34:26;95372.47;;;22.80
40047;BMP280;31510;48.122;11.576;2022-09-03T13:37:24;95369.84;;;22.74
40047;BMP280;31510;48.122;11.576;2022-09-03T13:39:57;95365.97;;;22.70
40047;BMP280;31510;48.122;11.576;2022-09-03T13:42:25;95370.81;;;22.64
40047;BMP280;31510;48.122;11.576;2022-09-03T13:47:44;95368.72;;;22.44
40047;BMP280;31510;48.122;11.576;2022-09-03T13:50:39;95373.31;;;22.36
40047;BMP280;31510;48.122;11.576;2022-09-03T13:53:30;95370.38;;;22.34
40047;BMP280;31510;48.122;11.576;2022-09-03T13:56:06;95365.25;;;22.31
40047;BMP280;31510;48.122;11.576;2022-09-03T13:58:45;95372.53;;;22.23
40047;BMP280;31510;48.122;11.576;2022-09-03T14:01:25;95374.41;;;22.15
40047;BMP280;31510;48.122;11.576;2022-09-03T14:03:57;95366.66;;;22.06
40047;BMP280;31510;48.122;11.576;2022-09-03T14:06:37;95373.63;;;22.02
40047;BMP280;31510;48.122;11.576;2022-09-03T14:09:28;95383.34;;;21.97
40047;BMP280;31510;48.122;11.576;2022-09-03T14:12:13;95386.16;;;21.92
40047;BMP280;31510;48.122;11.576;2022-09-03T14:14:51;95389.47;;;21.85
40047;BMP280;31510;48.122;11.576;2022-09-03T14:22:42;95383.38;;;21.79
40047;BMP280;31510;48.122;11.576;2022-09-03T14:25:16;95397.78;;;21.74
40047;BMP280;31510;48.122;11.576;2022-09-03T14:27:42;95423.25;;;21.71
40047;BMP280;31510;48.122;11.576;2022-09-03T14:30:39;95473.31;;;21.70
40047;BMP280;31510;48.122;11.576;2022-09-03T14:33:26;95497.88;;;21.41
40047;BMP280;31510;48.122;11.576;2022-09-03T14:43:51;95559.66;;;17.92
40047;BMP280;31510;48.122;11.576;2022-09-03T14:51:56;95555.47;;;16.75
40047;BMP280;31510;48.122;11.576;2022-09-03T15:05:43;95603.50;;;16.51
40047;BMP280;31510;48.122;11.576;2022-09-03T15:10:57;95576.34;;;16.49
40047;BMP280;31510;48.122;11.576;2022-09-03T15:13:33;95577.53;;;16.48
40047;BMP280;31510;48.122;11.576;2022-09-03T15:18:39;95562.53;;;16.37
40047;BMP280;31510;48.122;11.576;2022-09-03T15:21:28;95561.81;;;16.41
40047;BMP280;31510;48.122;11.576;2022-09-03T15:36:50;95575.59;;;16.49
40047;BMP280;31510;48.122;11.576;2022-09-03T15:39:24;95581.69;;;16.44
40047;BMP280;31510;48.122;11.576;2022-09-03T15:42:05;95581.59;;;16.33
40047;BMP280;31510;48.122;11.576;2022-09-03T15:44:41;95585.41;;;16.21
40047;BMP280;31510;48.122;11.576;2022-09-03T15:47:11;95585.75;;;16.09
40047;BMP280;31510;48.122;11.576;2022-09-03T15:50:01;95592.00;;;16.00
40047;BMP280;31510;48.122;11.576;2022-09-03T15:52:38;95591.97;;;15.95
40047;BMP280;31510;48.122;11.576;2022-09-03T15:55:09;95593.09;;;15.89
40047;BMP280;31510;48.122;11.576;2022-09-03T15:57:40;95594.34;;;15.88
40047;BMP280;31510;48.122;11.576;2022-09-03T16:00:15;95597.28;;;15.90
40047;BMP280;31510;48.122;11.576;2022-09-03T16:02:45;95595.28;;;15.85
40047;BMP280;31510;48.122;11.576;2022-09-03T16:05:26;95593.06;;;15.83
40047;BMP280;31510;48.122;11.576;2022-09-03T16:13:30;95575.78;;;15.90
40047;BMP280;31510;48.122;11.576;2022-09-03T16:16:01;95574.53;;;15.91
40047;BMP280;31510;48.122;11.576;2022-09-03T16:18:35;95578.50;;;15.95
40047;BMP280;31510;48.122;11.576;2022-09-03T16:21:13;95568.78;;;16.03
40047;BMP280;31510;48.122;11.576;2022-09-03T16:23:42;95570.84;;;16.13
40047;BMP280;31510;48.122;11.576;2022-09-03T16:26:20;93698.03;;;3.73
40047;BMP280;31510;48.122;11.576;2022-09-03T16:28:53;95562.47;;;16.31
40047;BMP280;31510;48.122;11.576;2022-09-03T16:34:23;95568.41;;;16.35
40047;BMP280;31510;48.122;11.576;2022-09-03T16:40:11;95564.03;;;16.43
40047;BMP280;31510;48.122;11.576;2022-09-03T16:42:43;95562.84;;;16.44
40047;BMP280;31510;48.122;11.576;2022-09-03T16:45:29;95564.78;;;16.43
40047;BMP280;31510;48.122;11.576;2022-09-03T16:53:48;95559.34;;;16.38
40047;BMP280;31510;48.122;11.576;2022-09-03T16:56:49;95560.09;;;16.38
40047;BMP280;31510;48.122;11.576;2022-09-03T16:59:34;95550.06;;;16.39
40047;BMP280;31510;48.122;11.576;2022-09-03T17:08:23;95550.38;;;16.46
40047;BMP280;31510;48.122;11.576;2022-09-03T17:11:00;95549.16;;;16.47
40047;BMP280;31510;48.122;11.576;2022-09-03T17:13:34;95548.91;;;16.45
40047;BMP280;31510;48.122;11.576;2022-09-03T17:27:30;95554.03;;;16.43
40047;BMP280;31510;48.122;11.576;2022-09-03T17:32:37;95554.75;;;16.44
40047;BMP280;31510;48.122;11.576;2022-09-03T17:38:16;95558.41;;;16.41
40047;BMP280;31510;48.122;11.576;2022-09-03T17:41:06;95554.97;;;16.40
40047;BMP280;31510;48.122;11.576;2022-09-03T17:43:45;95561.31;;;16.38
40047;BMP280;31510;48.122;11.576;2022-09-03T17:48:59;95565.97;;;16.37
40047;BMP280;31510;48.122;11.576;2022-09-03T17:54:23;95564.66;;;16.27
40047;BMP280;31510;48.122;11.576;2022-09-03T17:57:12;95564.38;;;16.25
40047;BMP280;31510;48.122;11.576;2022-09-03T17:59:41;95568.31;;;16.24
40047;BMP280;31510;48.122;11.576;2022-09-03T18:02:22;95568.53;;;16.21
40047;BMP280;31510;48.122;11.576;2022-09-03T18:05:02;95568.72;;;16.17
40047;BMP280;31510;48.122;11.576;2022-09-03T18:13:25;95576.09;;;15.97
40047;BMP280;31510;48.122;11.576;2022-09-03T18:18:29;95583.78;;;15.84
40047;BMP280;31510;48.122;11.576;2022-09-03T18:20:59;95585.41;;;15.76
40047;BMP280;31510;48.122;11.576;2022-09-03T18:27:07;95599.25;;;15.69